Gentry, AR (72734)

3:51 AM CST on January 16, 2018 (GMT -0600)
1/2 Mile South of Gentry | | Change Station
Active Advisory: Wind Chill Advisory

Elev 1225 ft 36.26 °N, 94.49 °W | Updated 6 seconds ago

Mostly Cloudy
Mostly Cloudy
5.9 °F
Feels Like -6 °F
N
6.7
Wind Variable Wind from WSW
Gusts 6.7 mph

Today
High -- | Low -- °F
--% Chance of Precip.
Yesterday
High -- | Low -- °F
Precip. -- in
Pressure 30.67 in
Visibility 10.0 miles
Clouds Mostly Cloudy 2600 ft
Windchill -6 °F
Dew Point -5 °F
Humidity 61%
Rainfall 0.00 in
Snow Depth Not available.
7:28 AM 5:27 PM
Waning Crescent, 0% visible
SPECI KSLG 160832Z AUTO 36012KT 10SM BKN026 M14/M18 A3067 RMK AO2 FZRANO
Pressure 30.67 in
Visibility 10.0 miles
Clouds Mostly Cloudy 2600 ft
Windchill -6 °F
Dew Point -5 °F
Humidity 61%
Rainfall 0.00 in
Snow Depth Not available.
7:28 AM 5:27 PM
Waning Crescent, 0% visible
SPECI KSLG 160832Z AUTO 36012KT 10SM BKN026 M14/M18 A3067 RMK AO2 FZRANO

Get Your Daily Forecast Email!

Thanks for signing up!

Be on the lookout for a verification email in your inbox.

You'll start receiving severe weather alerts in your inbox..

×

10-Day Weather Forecast

Almanac

Astronomy

Jan. 16, 2018 Rise Set
Actual Time
Civil Twilight
Nautical Twilight
Astronomical Twilight
Moon
Length of Visible Light
Length of Day
Tomorrow will be .
, % of the Moon is Illuminated

Today's Extremes

State Highs State Lows

Community

WunderPhotos

Category 6

Welcome to Category 6. This is the collective home for Weather Underground's featured writeups by Dr. Jeff Masters (right), Bob Henson (left), Chris Burt, and other regular contributors.

Nearby

Air Quality

  Air Quality AQ Index Pollutant
Not available.

Snow Depth

Station Depth Elevation

Earthquake Activity

City Distance Mag. Time & Date
Minimum magnitude displayed is 2.5.

Coastal Water Temperatures

Place Temperature

Stations

Nearby Weather Stations

Station Location Temp. Windchill Dew Point Humidity Wind Precip. Elev Updated Type
                   

Watches & Warnings

Wind Chill Advisory
Issued: 8:53 PM CST Jan. 15, 2018 – National Weather Service

... Wind Chill Advisory remains in effect until noon CST Tuesday...

* what... very cold wind chills expected. The cold wind chills will
cause frostbite in as little as 30 minutes to exposed skin. Expect
wind chills to range from 5 below zero to 15 below zero.

* Where... portions of northwest Arkansas, west central Arkansas,
east central Oklahoma, northeast Oklahoma and southeast
Oklahoma.

* When... 9 PM this evening through noon Tuesday. The coldest wind
chills will occur around 8 am Tuesday.

Precautionary/preparedness actions...

A Wind Chill Advisory means that cold air and the wind will
combine to create low wind chills. Frost bite and hypothermia can
occur if precautions are not taken. Make sure you wear multiple
layers and limit time outside in the elements.



69